Time,TemperatureF,DewpointF,PressureIn,WindDirection,WindDirectionDegrees,WindSpeedMPH,WindSpeedGustMPH,Humidity,HourlyPrecipIn,Conditions,Clouds,dailyrainin,SoftwareType,DateUTC
2013-09-20 00:01:00,53.0,50.7,30.06,South,180,0.0,0.0,92,0.00,,CLR,0.00,VWS V14.01,2013-09-20 04:01:00,
2013-09-20 00:02:00,53.0,51.0,30.06,South,180,0.0,0.0,93,0.00,,CLR,0.00,VWS V14.01,2013-09-20 04:02:00,
2013-09-20 00:03:00,53.0,51.0,30.06,South,180,0.0,0.0,93,0.00,,CLR,0.00,VWS V14.01,2013-09-20 04:03:00,
2013-09-20 00:08:00,52.9,50.9,30.06,South,180,0.0,0.0,93,0.00,,CLR,0.00,VWS V14.01,2013-09-20 04:08:00,
2013-09-20 00:14:00,52.7,50.7,30.06,South,180,0.0,0.0,93,0.00,,CLR,0.00,VWS V14.01,2013-09-20 04:14:00,
2013-09-20 00:19:00,52.6,50.6,30.06,South,180,0.0,0.0,93,0.00,,CLR,0.00,VWS V14.01,2013-09-20 04:19:00,
2013-09-20 00:24:00,52.5,50.5,30.06,South,180,0.0,0.0,93,0.00,,CLR,0.00,VWS V14.01,2013-09-20 04:24:00,
2013-09-20 00:29:00,52.3,50.3,30.06,South,180,0.0,0.0,93,0.00,,CLR,0.00,VWS V14.01,2013-09-20 04:29:00,
2013-09-20 00:34:00,52.3,50.3,30.06,South,180,0.0,0.0,93,0.00,,CLR,0.00,VWS V14.01,2013-09-20 04:34:00,
2013-09-20 00:39:00,52.2,50.2,30.06,South,180,0.0,0.0,93,0.00,,CLR,0.00,VWS V14.01,2013-09-20 04:39:00,
2013-09-20 00:44:00,52.0,50.3,30.06,South,180,0.0,0.0,94,0.00,,CLR,0.00,VWS V14.01,2013-09-20 04:44:00,
2013-09-20 00:49:00,52.0,50.3,30.06,South,180,0.0,0.0,94,0.00,,CLR,0.00,VWS V14.01,2013-09-20 04:49:00,
2013-09-20 00:54:00,51.9,50.2,30.06,South,180,0.0,0.0,94,0.00,,CLR,0.00,VWS V14.01,2013-09-20 04:54:00,
2013-09-20 00:59:00,51.7,50.0,30.06,South,180,0.0,0.0,94,0.00,,CLR,0.00,VWS V14.01,2013-09-20 04:59:00,
2013-09-20 01:04:00,51.7,50.0,30.06,South,180,0.0,0.0,94,0.00,,CLR,0.00,VWS V14.01,2013-09-20 05:04:00,
2013-09-20 01:09:00,51.6,49.9,30.06,South,180,0.0,0.0,94,0.00,,CLR,0.00,VWS V14.01,2013-09-20 05:09:00,
2013-09-20 01:14:00,51.4,49.7,30.06,South,180,0.0,0.0,94,0.00,,CLR,0.00,VWS V14.01,2013-09-20 05:14:00,
2013-09-20 01:19:00,51.4,50.0,30.06,South,180,0.0,0.0,95,0.00,,CLR,0.00,VWS V14.01,2013-09-20 05:19:00,
2013-09-20 01:24:00,51.4,50.0,30.07,South,180,0.0,0.0,95,0.00,,CLR,0.00,VWS V14.01,2013-09-20 05:24:00,
2013-09-20 01:29:00,51.3,49.9,30.07,South,180,0.0,0.0,95,0.00,,CLR,0.00,VWS V14.01,2013-09-20 05:29:00,
2013-09-20 01:34:00,51.3,49.9,30.06,South,180,0.0,0.0,95,0.00,,CLR,0.00,VWS V14.01,2013-09-20 05:34:00,
2013-09-20 01:39:00,51.3,49.9,30.06,South,180,0.0,0.0,95,0.00,,CLR,0.00,VWS V14.01,2013-09-20 05:39:00,
2013-09-20 01:44:00,51.3,49.9,30.06,South,180,0.0,0.0,95,0.00,,CLR,0.00,VWS V14.01,2013-09-20 05:44:00,
2013-09-20 01:49:00,51.3,49.9,30.07,South,180,0.0,0.0,95,0.00,,CLR,0.00,VWS V14.01,2013-09-20 05:49:00,
2013-09-20 01:54:00,51.3,49.9,30.07,South,180,0.0,0.0,95,0.00,,CLR,0.00,VWS V14.01,2013-09-20 05:54:00,
2013-09-20 01:59:00,51.3,49.9,30.07,South,180,0.0,0.0,95,0.00,,CLR,0.00,VWS V14.01,2013-09-20 05:59:00,
2013-09-20 02:04:00,51.3,49.9,30.06,South,180,0.0,0.0,95,0.00,,CLR,0.00,VWS V14.01,2013-09-20 06:04:00,
2013-09-20 02:09:00,51.3,49.9,30.06,South,180,0.0,0.0,95,0.00,,CLR,0.00,VWS V14.01,2013-09-20 06:09:00,
2013-09-20 02:14:00,51.3,49.9,30.06,South,180,0.0,0.0,95,0.00,,CLR,0.00,VWS V14.01,2013-09-20 06:14:00,
2013-09-20 02:19:00,51.1,49.7,30.06,South,180,0.0,0.0,95,0.00,,CLR,0.00,VWS V14.01,2013-09-20 06:19:00,
2013-09-20 02:24:00,51.1,50.0,30.06,South,180,0.0,0.0,96,0.00,,CLR,0.00,VWS V14.01,2013-09-20 06:24:00,
2013-09-20 02:29:00,51.0,49.9,30.06,South,180,0.0,0.0,96,0.00,,CLR,0.00,VWS V14.01,2013-09-20 06:29:00,
2013-09-20 02:34:00,51.0,49.9,30.06,South,180,0.0,0.0,96,0.00,,CLR,0.00,VWS V14.01,2013-09-20 06:34:00,
2013-09-20 02:39:00,50.8,49.7,30.06,South,180,0.0,0.0,96,0.00,,CLR,0.00,VWS V14.01,2013-09-20 06:39:00,
2013-09-20 02:44:00,50.7,49.6,30.06,South,180,0.0,0.0,96,0.00,,CLR,0.00,VWS V14.01,2013-09-20 06:44:00,
2013-09-20 02:49:00,50.5,49.4,30.06,South,180,0.0,0.0,96,0.00,,CLR,0.00,VWS V14.01,2013-09-20 06:49:00,
2013-09-20 02:54:00,50.5,49.4,30.06,South,180,0.0,0.0,96,0.00,,CLR,0.00,VWS V14.01,2013-09-20 06:54:00,
2013-09-20 02:59:00,50.4,49.3,30.07,South,180,0.0,0.0,96,0.00,,CLR,0.00,VWS V14.01,2013-09-20 06:59:00,
2013-09-20 03:04:00,50.4,49.3,30.07,South,180,0.0,0.0,96,0.00,,CLR,0.00,VWS V14.01,2013-09-20 07:04:00,
2013-09-20 03:09:00,50.5,49.4,30.07,South,180,0.0,0.0,96,0.00,,CLR,0.00,VWS V14.01,2013-09-20 07:09:00,
2013-09-20 03:14:00,50.5,49.4,30.07,South,180,0.0,0.0,96,0.00,,CLR,0.00,VWS V14.01,2013-09-20 07:14:00,
2013-09-20 03:19:00,50.7,49.6,30.07,South,180,0.0,0.0,96,0.00,,CLR,0.00,VWS V14.01,2013-09-20 07:19:00,
2013-09-20 03:24:00,50.7,49.6,30.07,South,180,0.0,0.0,96,0.00,,CLR,0.00,VWS V14.01,2013-09-20 07:24:00,
2013-09-20 03:29:00,50.7,49.6,30.07,South,180,0.0,0.0,96,0.00,,CLR,0.00,VWS V14.01,2013-09-20 07:29:00,
2013-09-20 03:34:00,50.5,49.4,30.07,South,180,0.0,0.0,96,0.00,,CLR,0.00,VWS V14.01,2013-09-20 07:34:00,
2013-09-20 03:39:00,50.5,49.4,30.07,South,180,0.0,0.0,96,0.00,,CLR,0.00,VWS V14.01,2013-09-20 07:39:00,
2013-09-20 03:44:00,50.4,49.3,30.07,South,180,0.0,0.0,96,0.00,,CLR,0.00,VWS V14.01,2013-09-20 07:44:00,
2013-09-20 03:49:00,50.2,49.1,30.07,South,180,0.0,0.0,96,0.00,,CLR,0.00,VWS V14.01,2013-09-20 07:49:00,
2013-09-20 03:54:00,50.1,49.0,30.07,South,180,0.0,0.0,96,0.00,,CLR,0.00,VWS V14.01,2013-09-20 07:54:00,
2013-09-20 03:59:00,49.9,48.8,30.07,South,180,0.0,0.0,96,0.00,,CLR,0.00,VWS V14.01,2013-09-20 07:59:00,
2013-09-20 04:04:00,49.9,49.1,30.07,South,180,0.0,0.0,97,0.00,,CLR,0.00,VWS V14.01,2013-09-20 08:04:00,
2013-09-20 04:09:00,49.8,49.0,30.07,South,180,0.0,0.0,97,0.00,,CLR,0.00,VWS V14.01,2013-09-20 08:09:00,
2013-09-20 04:15:00,49.8,49.0,30.07,South,180,0.0,0.0,97,0.00,,CLR,0.00,VWS V14.01,2013-09-20 08:15:00,
2013-09-20 04:20:00,49.8,49.0,30.07,South,180,0.0,0.0,97,0.00,,CLR,0.00,VWS V14.01,2013-09-20 08:20:00,
2013-09-20 04:25:00,49.8,49.0,30.06,South,180,0.0,0.0,97,0.00,,CLR,0.00,VWS V14.01,2013-09-20 08:25:00,
2013-09-20 04:30:00,49.8,49.0,30.06,South,180,0.0,0.0,97,0.00,,CLR,0.00,VWS V14.01,2013-09-20 08:30:00,
2013-09-20 04:35:00,49.6,48.8,30.06,South,180,0.0,0.0,97,0.00,,CLR,0.00,VWS V14.01,2013-09-20 08:35:00,
2013-09-20 04:40:00,49.5,48.7,30.06,South,180,0.0,0.0,97,0.00,,CLR,0.00,VWS V14.01,2013-09-20 08:40:00,
2013-09-20 04:45:00,49.5,48.7,30.06,South,180,0.0,0.0,97,0.00,,CLR,0.00,VWS V14.01,2013-09-20 08:45:00,
2013-09-20 04:50:00,49.5,48.7,30.06,South,180,0.0,0.0,97,0.00,,CLR,0.00,VWS V14.01,2013-09-20 08:50:00,
2013-09-20 04:55:00,49.3,48.5,30.06,South,180,0.0,0.0,97,0.00,,CLR,0.00,VWS V14.01,2013-09-20 08:55:00,
2013-09-20 05:00:00,49.5,48.7,30.06,South,180,0.0,0.0,97,0.00,,CLR,0.00,VWS V14.01,2013-09-20 09:00:00,
2013-09-20 05:05:00,49.6,49.1,30.06,South,180,0.0,0.0,98,0.00,,CLR,0.00,VWS V14.01,2013-09-20 09:05:00,
2013-09-20 05:10:00,49.8,49.3,30.06,South,180,0.0,0.0,98,0.00,,CLR,0.00,VWS V14.01,2013-09-20 09:10:00,
2013-09-20 05:15:00,49.8,49.3,30.05,South,180,0.0,0.0,98,0.00,,CLR,0.00,VWS V14.01,2013-09-20 09:15:00,
2013-09-20 05:20:00,49.8,49.3,30.05,South,180,0.0,0.0,98,0.00,,CLR,0.00,VWS V14.01,2013-09-20 09:20:00,
2013-09-20 05:25:00,49.6,48.8,30.05,South,180,0.0,0.0,97,0.00,,CLR,0.00,VWS V14.01,2013-09-20 09:25:00,
2013-09-20 05:30:00,49.5,48.7,30.05,South,180,0.0,0.0,97,0.00,,CLR,0.00,VWS V14.01,2013-09-20 09:30:00,
2013-09-20 05:35:00,49.5,48.7,30.05,South,180,0.0,0.0,97,0.00,,CLR,0.00,VWS V14.01,2013-09-20 09:35:00,
2013-09-20 05:40:00,49.5,48.7,30.05,South,180,0.0,0.0,97,0.00,,CLR,0.00,VWS V14.01,2013-09-20 09:40:00,
2013-09-20 05:45:00,49.5,48.7,30.05,South,180,0.0,0.0,97,0.00,,CLR,0.00,VWS V14.01,2013-09-20 09:45:00,
2013-09-20 05:50:00,49.5,48.7,30.05,South,180,0.0,0.0,97,0.00,,CLR,0.00,VWS V14.01,2013-09-20 09:50:00,
2013-09-20 05:55:00,49.6,48.8,30.05,South,180,0.0,0.0,97,0.00,,CLR,0.00,VWS V14.01,2013-09-20 09:55:00,
2013-09-20 06:00:00,49.6,48.8,30.05,South,180,0.0,0.0,97,0.00,,CLR,0.00,VWS V14.01,2013-09-20 10:00:00,
2013-09-20 06:05:00,49.5,48.7,30.05,South,180,0.0,0.0,97,0.00,,FEW100,0.00,VWS V14.01,2013-09-20 10:05:00,
2013-09-20 06:10:00,49.6,48.8,30.05,South,180,0.0,0.0,97,0.00,,FEW100,0.00,VWS V14.01,2013-09-20 10:10:00,
2013-09-20 06:15:00,49.6,48.8,30.06,South,180,0.0,0.0,97,0.00,,FEW100,0.00,VWS V14.01,2013-09-20 10:15:00,
2013-09-20 06:20:00,49.6,48.8,30.06,South,180,0.0,0.0,97,0.00,,FEW100,0.00,VWS V14.01,2013-09-20 10:20:00,
2013-09-20 06:25:00,49.6,48.8,30.06,South,180,0.0,0.0,97,0.00,,FEW100,0.00,VWS V14.01,2013-09-20 10:25:00,
2013-09-20 06:30:00,49.6,48.8,30.06,South,180,0.0,0.0,97,0.00,,FEW100,0.00,VWS V14.01,2013-09-20 10:30:00,
2013-09-20 06:35:00,49.5,48.7,30.06,South,180,0.0,0.0,97,0.00,,FEW100,0.00,VWS V14.01,2013-09-20 10:35:00,
2013-09-20 06:40:00,49.3,48.5,30.06,South,180,0.0,0.0,97,0.00,,FEW100,0.00,VWS V14.01,2013-09-20 10:40:00,
2013-09-20 06:45:00,49.0,48.2,30.07,South,180,0.0,0.0,97,0.00,,FEW100,0.00,VWS V14.01,2013-09-20 10:45:00,
2013-09-20 06:50:00,48.8,47.7,30.07,South,180,0.0,0.0,96,0.00,,FEW100,0.00,VWS V14.01,2013-09-20 10:50:00,
2013-09-20 06:55:00,48.6,47.5,30.07,South,180,0.0,0.0,96,0.00,,FEW100,0.00,VWS V14.01,2013-09-20 10:55:00,
2013-09-20 07:00:00,48.5,47.4,30.07,South,180,0.0,0.0,96,0.00,,FEW100,0.00,VWS V14.01,2013-09-20 11:00:00,
2013-09-20 07:05:00,48.5,47.7,30.07,South,180,0.0,0.0,97,0.00,,SCT180,0.00,VWS V14.01,2013-09-20 11:05:00,
2013-09-20 07:11:00,48.5,47.7,30.07,South,180,0.0,0.0,97,0.00,,SCT180,0.00,VWS V14.01,2013-09-20 11:11:00,
2013-09-20 07:16:00,48.5,47.7,30.07,South,180,0.0,0.0,97,0.00,,SCT180,0.00,VWS V14.01,2013-09-20 11:16:00,
2013-09-20 07:21:00,48.5,47.7,30.07,South,180,0.0,0.0,97,0.00,,SCT180,0.00,VWS V14.01,2013-09-20 11:21:00,
2013-09-20 07:26:00,48.6,47.8,30.07,South,180,0.0,0.0,97,0.00,,SCT180,0.00,VWS V14.01,2013-09-20 11:26:00,
2013-09-20 07:31:00,49.2,48.4,30.08,South,180,0.0,0.0,97,0.00,,SCT180,0.00,VWS V14.01,2013-09-20 11:31:00,
2013-09-20 07:36:00,49.6,48.8,30.08,South,180,0.0,0.0,97,0.00,,SCT180,0.00,VWS V14.01,2013-09-20 11:36:00,
2013-09-20 07:41:00,49.8,49.0,30.08,South,180,0.0,0.0,97,0.00,,SCT180,0.00,VWS V14.01,2013-09-20 11:41:00,
2013-09-20 07:46:00,50.1,49.0,30.08,South,180,0.0,0.0,96,0.00,,SCT180,0.00,VWS V14.01,2013-09-20 11:46:00,
2013-09-20 07:51:00,50.8,49.7,30.08,South,180,0.0,0.0,96,0.00,,SCT180,0.00,VWS V14.01,2013-09-20 11:51:00,
2013-09-20 07:56:00,51.6,50.5,30.08,South,180,0.0,0.0,96,0.00,,SCT180,0.00,VWS V14.01,2013-09-20 11:56:00,
2013-09-20 08:01:00,52.5,51.4,30.08,South,180,0.0,0.0,96,0.00,,SCT180,0.00,VWS V14.01,2013-09-20 12:01:00,
2013-09-20 08:06:00,53.6,52.2,30.08,South,180,0.0,0.0,95,0.00,,FEW001,0.00,VWS V14.01,2013-09-20 12:06:00,
2013-09-20 08:11:00,54.5,52.5,30.08,South,180,0.0,0.0,93,0.00,,FEW001,0.00,VWS V14.01,2013-09-20 12:11:00,
2013-09-20 08:16:00,55.4,52.5,30.07,South,180,0.0,1.0,90,0.00,,FEW001,0.00,VWS V14.01,2013-09-20 12:16:00,
2013-09-20 08:21:00,56.3,52.8,30.08,South,180,0.0,0.0,88,0.00,,FEW001,0.00,VWS V14.01,2013-09-20 12:21:00,
2013-09-20 08:26:00,57.4,53.2,30.08,South,180,0.0,0.0,86,0.00,,FEW001,0.00,VWS V14.01,2013-09-20 12:26:00,
2013-09-20 08:31:00,57.8,53.0,30.08,South,180,0.0,0.0,84,0.00,,FEW001,0.00,VWS V14.01,2013-09-20 12:31:00,
2013-09-20 08:36:00,58.1,52.3,30.08,South,180,0.0,0.0,81,0.00,,FEW001,0.00,VWS V14.01,2013-09-20 12:36:00,
2013-09-20 08:41:00,58.4,52.3,30.08,South,180,0.0,0.0,80,0.00,,FEW001,0.00,VWS V14.01,2013-09-20 12:41:00,
2013-09-20 08:46:00,59.2,52.7,30.08,South,180,0.0,2.0,79,0.00,,FEW001,0.00,VWS V14.01,2013-09-20 12:46:00,
2013-09-20 08:51:00,59.9,53.7,30.08,South,180,0.0,0.0,80,0.00,,FEW001,0.00,VWS V14.01,2013-09-20 12:51:00,
2013-09-20 08:56:00,60.6,54.1,30.08,South,180,0.0,0.0,79,0.00,,FEW001,0.00,VWS V14.01,2013-09-20 12:56:00,
2013-09-20 09:01:00,61.4,53.4,30.08,South,180,0.0,0.0,75,0.00,,FEW001,0.00,VWS V14.01,2013-09-20 13:01:00,
2013-09-20 09:06:00,62.1,53.3,30.08,South,180,0.0,0.0,73,0.00,,CLR,0.00,VWS V14.01,2013-09-20 13:06:00,
2013-09-20 09:11:00,62.5,53.4,30.08,South,180,0.0,0.0,72,0.00,,CLR,0.00,VWS V14.01,2013-09-20 13:11:00,
2013-09-20 09:16:00,62.3,53.2,30.08,South,180,0.0,1.0,72,0.00,,CLR,0.00,VWS V14.01,2013-09-20 13:16:00,
2013-09-20 09:21:00,62.9,53.8,30.08,South,180,0.0,3.0,72,0.00,,CLR,0.00,VWS V14.01,2013-09-20 13:21:00,
2013-09-20 09:26:00,63.3,54.1,30.08,South,180,4.0,6.0,72,0.00,,CLR,0.00,VWS V14.01,2013-09-20 13:26:00,
2013-09-20 09:31:00,64.1,54.9,30.08,South,180,4.0,7.0,72,0.00,,CLR,0.00,VWS V14.01,2013-09-20 13:31:00,
2013-09-20 09:36:00,65.0,55.4,30.08,South,180,0.0,0.0,71,0.00,,CLR,0.00,VWS V14.01,2013-09-20 13:36:00,
2013-09-20 09:41:00,65.8,55.8,30.08,South,180,0.0,0.0,70,0.00,,CLR,0.00,VWS V14.01,2013-09-20 13:41:00,
2013-09-20 09:46:00,66.0,56.0,30.09,South,180,0.0,0.0,70,0.00,,CLR,0.00,VWS V14.01,2013-09-20 13:46:00,
2013-09-20 09:51:00,66.2,56.1,30.09,South,180,0.0,0.0,70,0.00,,CLR,0.00,VWS V14.01,2013-09-20 13:51:00,
2013-09-20 09:55:00,66.7,56.6,30.09,South,180,1.0,8.0,70,0.00,,CLR,0.00,VWS V14.01,2013-09-20 13:55:00,
2013-09-20 10:00:00,67.1,55.0,30.08,South,180,1.0,6.0,65,0.00,,CLR,0.00,VWS V14.01,2013-09-20 14:00:00,
2013-09-20 10:05:00,67.1,56.2,30.08,South,180,1.0,7.0,68,0.00,,CLR,0.00,VWS V14.01,2013-09-20 14:05:00,
2013-09-20 10:10:00,67.4,56.1,30.08,South,180,0.0,2.0,67,0.00,,CLR,0.00,VWS V14.01,2013-09-20 14:10:00,
2013-09-20 10:15:00,68.3,56.9,30.08,South,180,0.0,7.0,67,0.00,,CLR,0.00,VWS V14.01,2013-09-20 14:15:00,
2013-09-20 10:20:00,68.7,55.6,30.08,South,180,0.0,8.0,63,0.00,,CLR,0.00,VWS V14.01,2013-09-20 14:20:00,
2013-09-20 10:25:00,68.6,55.1,30.08,South,180,0.0,1.0,62,0.00,,CLR,0.00,VWS V14.01,2013-09-20 14:25:00,
2013-09-20 10:30:00,68.3,54.8,30.08,South,180,2.0,12.0,62,0.00,,CLR,0.00,VWS V14.01,2013-09-20 14:30:00,
2013-09-20 10:35:00,68.5,55.0,30.07,South,180,3.0,12.0,62,0.00,,CLR,0.00,VWS V14.01,2013-09-20 14:35:00,
2013-09-20 10:40:00,69.1,56.4,30.07,South,180,0.0,0.0,64,0.00,,CLR,0.00,VWS V14.01,2013-09-20 14:40:00,
2013-09-20 10:45:00,70.4,56.3,30.07,South,180,0.0,2.0,61,0.00,,CLR,0.00,VWS V14.01,2013-09-20 14:45:00,
2013-09-20 10:50:00,71.6,56.1,30.07,South,180,1.0,7.0,58,0.00,,CLR,0.00,VWS V14.01,2013-09-20 14:50:00,
2013-09-20 10:55:00,71.9,54.9,30.08,South,180,1.0,5.0,55,0.00,,CLR,0.00,VWS V14.01,2013-09-20 14:55:00,
2013-09-20 11:00:00,72.4,54.8,30.07,South,180,0.0,7.0,54,0.00,,CLR,0.00,VWS V14.01,2013-09-20 15:00:00,
2013-09-20 11:05:00,72.6,55.0,30.07,South,180,0.0,2.0,54,0.00,,CLR,0.00,VWS V14.01,2013-09-20 15:05:00,
2013-09-20 11:10:00,72.9,54.3,30.07,South,180,2.0,8.0,52,0.00,,CLR,0.00,VWS V14.01,2013-09-20 15:10:00,
2013-09-20 11:15:00,73.0,53.3,30.07,South,180,1.0,12.0,50,0.00,,CLR,0.00,VWS V14.01,2013-09-20 15:15:00,
2013-09-20 11:20:00,72.7,55.1,30.07,South,180,2.0,15.0,54,0.00,,CLR,0.00,VWS V14.01,2013-09-20 15:20:00,
2013-09-20 11:25:00,72.9,52.6,30.07,South,180,0.0,1.0,49,0.00,,CLR,0.00,VWS V14.01,2013-09-20 15:25:00,
2013-09-20 11:30:00,73.5,54.8,30.07,South,180,1.0,11.0,52,0.00,,CLR,0.00,VWS V14.01,2013-09-20 15:30:00,
2013-09-20 11:35:00,73.7,53.9,30.07,South,180,0.0,4.0,50,0.00,,CLR,0.00,VWS V14.01,2013-09-20 15:35:00,
2013-09-20 11:40:00,74.1,53.2,30.07,South,180,0.0,2.0,48,0.00,,CLR,0.00,VWS V14.01,2013-09-20 15:40:00,
2013-09-20 11:45:00,73.9,54.1,30.08,South,180,0.0,2.0,50,0.00,,CLR,0.00,VWS V14.01,2013-09-20 15:45:00,
2013-09-20 11:50:00,74.0,54.7,30.07,South,180,0.0,0.0,51,0.00,,CLR,0.00,VWS V14.01,2013-09-20 15:50:00,
2013-09-20 11:55:00,74.7,55.4,30.07,South,180,0.0,3.0,51,0.00,,CLR,0.00,VWS V14.01,2013-09-20 15:55:00,
2013-09-20 12:00:00,74.7,55.4,30.07,South,180,0.0,1.0,51,0.00,,CLR,0.00,VWS V14.01,2013-09-20 16:00:00,
2013-09-20 12:05:00,74.7,57.0,30.06,South,180,0.0,2.0,54,0.00,,CLR,0.00,VWS V14.01,2013-09-20 16:05:00,
2013-09-20 12:10:00,74.8,53.8,30.06,South,180,0.0,1.0,48,0.00,,CLR,0.00,VWS V14.01,2013-09-20 16:10:00,
2013-09-20 12:15:00,74.9,55.0,30.06,South,180,1.0,9.0,50,0.00,,CLR,0.00,VWS V14.01,2013-09-20 16:15:00,
2013-09-20 12:20:00,75.3,56.5,30.05,South,180,1.0,12.0,52,0.00,,CLR,0.00,VWS V14.01,2013-09-20 16:20:00,
2013-09-20 12:25:00,75.4,53.8,30.05,South,180,0.0,9.0,47,0.00,,CLR,0.00,VWS V14.01,2013-09-20 16:25:00,
2013-09-20 12:30:00,75.5,53.3,30.05,South,180,1.0,8.0,46,0.00,,CLR,0.00,VWS V14.01,2013-09-20 16:30:00,
2013-09-20 12:35:00,75.8,53.6,30.05,South,180,1.0,6.0,46,0.00,,CLR,0.00,VWS V14.01,2013-09-20 16:35:00,
2013-09-20 12:40:00,75.6,55.1,30.05,South,180,0.0,3.0,49,0.00,,CLR,0.00,VWS V14.01,2013-09-20 16:40:00,
2013-09-20 12:45:00,75.5,53.9,30.05,South,180,1.0,14.0,47,0.00,,CLR,0.00,VWS V14.01,2013-09-20 16:45:00,
2013-09-20 12:50:00,75.3,53.1,30.05,South,180,1.0,11.0,46,0.00,,CLR,0.00,VWS V14.01,2013-09-20 16:50:00,
2013-09-20 12:55:00,75.4,56.6,30.05,South,180,0.0,2.0,52,0.00,,CLR,0.00,VWS V14.01,2013-09-20 16:55:00,
2013-09-20 13:00:00,75.5,55.0,30.05,South,180,0.0,1.0,49,0.00,,CLR,0.00,VWS V14.01,2013-09-20 17:00:00,
2013-09-20 13:05:00,75.5,53.9,30.05,South,180,1.0,10.0,47,0.00,,CLR,0.00,VWS V14.01,2013-09-20 17:05:00,
2013-09-20 13:10:00,75.8,55.3,30.05,South,180,0.0,2.0,49,0.00,,CLR,0.00,VWS V14.01,2013-09-20 17:10:00,
2013-09-20 13:15:00,76.2,51.5,30.05,South,180,2.0,11.0,42,0.00,,CLR,0.00,VWS V14.01,2013-09-20 17:15:00,
2013-09-20 13:20:00,76.1,51.4,30.04,South,180,0.0,7.0,42,0.00,,CLR,0.00,VWS V14.01,2013-09-20 17:20:00,
2013-09-20 13:25:00,76.5,53.0,30.04,South,180,0.0,3.0,44,0.00,,CLR,0.00,VWS V14.01,2013-09-20 17:25:00,
2013-09-20 13:30:00,77.0,52.2,30.04,South,180,0.0,1.0,42,0.00,,CLR,0.00,VWS V14.01,2013-09-20 17:30:00,
2013-09-20 13:35:00,76.9,53.3,30.04,South,180,0.0,4.0,44,0.00,,CLR,0.00,VWS V14.01,2013-09-20 17:35:00,
2013-09-20 13:40:00,76.7,52.5,30.04,South,180,0.0,1.0,43,0.00,,CLR,0.00,VWS V14.01,2013-09-20 17:40:00,
2013-09-20 13:45:00,77.2,52.4,30.03,South,180,0.0,6.0,42,0.00,,CLR,0.00,VWS V14.01,2013-09-20 17:45:00,
2013-09-20 13:50:00,76.7,51.9,30.03,South,180,4.0,16.0,42,0.00,,CLR,0.00,VWS V14.01,2013-09-20 17:50:00,
2013-09-20 13:55:00,76.8,52.0,30.03,South,180,1.0,14.0,42,0.00,,CLR,0.00,VWS V14.01,2013-09-20 17:55:00,
2013-09-20 14:00:00,76.7,53.8,30.03,South,180,1.0,12.0,45,0.00,,CLR,0.00,VWS V14.01,2013-09-20 18:00:00,
2013-09-20 14:05:00,76.6,51.8,30.02,South,180,2.0,16.0,42,0.00,,CLR,0.00,VWS V14.01,2013-09-20 18:05:00,
2013-09-20 14:10:00,76.8,52.6,30.02,South,180,2.0,20.0,43,0.00,,CLR,0.00,VWS V14.01,2013-09-20 18:10:00,
2013-09-20 14:15:00,76.9,53.3,30.02,South,180,0.0,1.0,44,0.00,,CLR,0.00,VWS V14.01,2013-09-20 18:15:00,
2013-09-20 14:20:00,76.8,53.3,30.02,South,180,0.0,2.0,44,0.00,,CLR,0.00,VWS V14.01,2013-09-20 18:20:00,
2013-09-20 14:25:00,77.1,54.8,30.02,South,180,0.0,6.0,46,0.00,,CLR,0.00,VWS V14.01,2013-09-20 18:25:00,
2013-09-20 14:30:00,77.1,55.9,30.02,South,180,0.0,4.0,48,0.00,,CLR,0.00,VWS V14.01,2013-09-20 18:30:00,
2013-09-20 14:35:00,77.0,55.2,30.02,South,180,0.0,2.0,47,0.00,,CLR,0.00,VWS V14.01,2013-09-20 18:35:00,
2013-09-20 14:40:00,77.3,53.7,30.01,South,180,0.0,4.0,44,0.00,,CLR,0.00,VWS V14.01,2013-09-20 18:40:00,
2013-09-20 14:45:00,77.8,52.9,30.01,South,180,0.0,5.0,42,0.00,,CLR,0.00,VWS V14.01,2013-09-20 18:45:00,
2013-09-20 14:50:00,78.3,53.3,30.01,South,180,2.0,18.0,42,0.00,,CLR,0.00,VWS V14.01,2013-09-20 18:50:00,
2013-09-20 14:55:00,78.0,51.1,30.01,South,180,0.0,10.0,39,0.00,,CLR,0.00,VWS V14.01,2013-09-20 18:55:00,
2013-09-20 15:00:00,77.2,50.3,30.01,South,180,1.0,12.0,39,0.00,,CLR,0.00,VWS V14.01,2013-09-20 19:00:00,
2013-09-20 15:05:00,76.8,52.0,30.01,South,180,0.0,6.0,42,0.00,,BKN250,0.00,VWS V14.01,2013-09-20 19:05:00,
2013-09-20 15:14:00,76.8,52.0,30.01,South,180,0.0,6.0,42,0.00,,CLR,0.00,VWS V14.01,2013-09-20 19:14:00,
2013-09-20 15:15:00,77.5,53.9,30.00,South,180,1.0,2.0,44,0.00,,BKN250,0.00,VWS V14.01,2013-09-20 19:15:00,
2013-09-20 15:19:00,77.5,53.9,30.00,South,180,0.0,0.0,44,0.00,,CLR,0.00,VWS V14.01,2013-09-20 19:19:00,
2013-09-20 15:20:00,77.5,53.3,30.00,South,180,0.0,14.0,43,0.00,,BKN250,0.00,VWS V14.01,2013-09-20 19:20:00,
2013-09-20 15:24:00,77.5,53.3,30.00,South,180,0.0,0.0,43,0.00,,CLR,0.00,VWS V14.01,2013-09-20 19:24:00,
2013-09-20 15:25:00,77.3,53.1,30.00,South,180,0.0,0.0,43,0.00,,BKN250,0.00,VWS V14.01,2013-09-20 19:25:00,
2013-09-20 15:29:00,77.0,52.2,30.00,South,180,0.0,1.0,42,0.00,,CLR,0.00,VWS V14.01,2013-09-20 19:29:00,
2013-09-20 15:30:00,77.0,54.1,30.00,South,180,0.0,1.0,45,0.00,,BKN250,0.00,VWS V14.01,2013-09-20 19:30:00,
2013-09-20 15:34:00,77.3,51.8,30.00,South,180,5.0,13.0,41,0.00,,CLR,0.00,VWS V14.01,2013-09-20 19:34:00,
2013-09-20 15:35:00,77.7,50.8,30.00,South,180,0.0,12.0,39,0.00,,BKN250,0.00,VWS V14.01,2013-09-20 19:35:00,
2013-09-20 15:39:00,77.9,53.0,30.00,South,180,0.0,0.0,42,0.00,,CLR,0.00,VWS V14.01,2013-09-20 19:39:00,
2013-09-20 15:40:00,78.0,51.1,30.00,South,180,0.0,13.0,39,0.00,,BKN250,0.00,VWS V14.01,2013-09-20 19:40:00,
2013-09-20 15:44:00,78.2,50.5,30.00,South,180,0.0,1.0,38,0.00,,CLR,0.00,VWS V14.01,2013-09-20 19:44:00,
2013-09-20 15:45:00,78.2,53.2,30.00,South,180,1.0,1.0,42,0.00,,BKN250,0.00,VWS V14.01,2013-09-20 19:45:00,
2013-09-20 15:50:00,78.0,51.8,30.00,South,180,0.0,0.0,40,0.00,,CLR,0.00,VWS V14.01,2013-09-20 19:50:00,
2013-09-20 15:55:00,77.5,55.1,30.00,South,180,0.0,0.0,46,0.00,,CLR,0.00,VWS V14.01,2013-09-20 19:55:00,
2013-09-20 16:00:00,77.7,55.3,30.00,South,180,0.0,1.0,46,0.00,,CLR,0.00,VWS V14.01,2013-09-20 20:00:00,
2013-09-20 16:05:00,77.9,54.3,30.00,South,180,3.0,13.0,44,0.00,,BKN250,0.00,VWS V14.01,2013-09-20 20:05:00,
2013-09-20 16:10:00,77.9,56.7,30.00,South,180,0.0,0.0,48,0.00,,BKN250,0.00,VWS V14.01,2013-09-20 20:10:00,
2013-09-20 16:15:00,77.5,56.9,30.00,South,180,0.0,0.0,49,0.00,,BKN250,0.00,VWS V14.01,2013-09-20 20:15:00,
2013-09-20 16:20:00,77.1,57.0,30.00,South,180,0.0,1.0,50,0.00,,BKN250,0.00,VWS V14.01,2013-09-20 20:20:00,
2013-09-20 16:25:00,76.2,54.5,30.00,South,180,1.0,1.0,47,0.00,,BKN250,0.00,VWS V14.01,2013-09-20 20:25:00,
2013-09-20 16:30:00,75.5,55.0,30.00,South,180,0.0,1.0,49,0.00,,BKN250,0.00,VWS V14.01,2013-09-20 20:30:00,
2013-09-20 16:35:00,75.2,55.8,30.00,South,180,0.0,1.0,51,0.00,,BKN250,0.00,VWS V14.01,2013-09-20 20:35:00,
2013-09-20 16:40:00,75.2,55.8,30.00,South,180,13.0,13.0,51,0.00,,BKN250,0.00,VWS V14.01,2013-09-20 20:40:00,
2013-09-20 16:45:00,75.4,54.9,30.00,South,180,5.0,8.0,49,0.00,,BKN250,0.00,VWS V14.01,2013-09-20 20:45:00,
2013-09-20 16:50:00,75.2,53.0,30.00,South,180,0.0,1.0,46,0.00,,BKN250,0.00,VWS V14.01,2013-09-20 20:50:00,
2013-09-20 16:55:00,74.5,51.8,30.00,South,180,0.0,1.0,45,0.00,,BKN250,0.00,VWS V14.01,2013-09-20 20:55:00,
2013-09-20 17:00:00,74.0,51.3,30.00,South,180,0.0,0.0,45,0.00,,BKN250,0.00,VWS V14.01,2013-09-20 21:00:00,
2013-09-20 17:05:00,73.8,51.2,30.00,South,180,0.0,1.0,45,0.00,,BKN250,0.00,VWS V14.01,2013-09-20 21:05:00,
2013-09-20 17:10:00,73.3,51.3,30.00,South,180,0.0,5.0,46,0.00,,BKN250,0.00,VWS V14.01,2013-09-20 21:10:00,
2013-09-20 17:15:00,72.6,50.1,30.00,South,180,5.0,13.0,45,0.00,,BKN250,0.00,VWS V14.01,2013-09-20 21:15:00,
2013-09-20 17:20:00,72.2,49.1,30.00,South,180,0.0,0.0,44,0.00,,BKN250,0.00,VWS V14.01,2013-09-20 21:20:00,
2013-09-20 17:25:00,71.5,48.5,30.00,South,180,6.0,6.0,44,0.00,,FEW300,0.00,VWS V14.01,2013-09-20 21:25:00,
2013-09-20 17:27:00,71.7,48.7,30.00,South,180,0.0,0.0,44,0.00,,BKN250,0.00,VWS V14.01,2013-09-20 21:27:00,
2013-09-20 17:30:00,71.4,48.4,30.00,South,180,10.0,10.0,44,0.00,,FEW300,0.00,VWS V14.01,2013-09-20 21:30:00,
2013-09-20 17:32:00,71.4,48.4,30.00,South,180,6.0,12.0,44,0.00,,BKN250,0.00,VWS V14.01,2013-09-20 21:32:00,
2013-09-20 17:35:00,71.0,48.6,30.00,South,180,6.0,18.0,45,0.00,,FEW300,0.00,VWS V14.01,2013-09-20 21:35:00,
2013-09-20 17:37:00,71.0,48.6,30.00,South,180,10.0,18.0,45,0.00,,BKN250,0.00,VWS V14.01,2013-09-20 21:37:00,
2013-09-20 17:40:00,70.7,48.9,30.01,South,180,0.0,9.0,46,0.00,,FEW300,0.00,VWS V14.01,2013-09-20 21:40:00,
2013-09-20 17:42:00,70.9,49.1,30.01,South,180,0.0,9.0,46,0.00,,BKN250,0.00,VWS V14.01,2013-09-20 21:42:00,
2013-09-20 17:45:00,70.5,49.9,30.01,South,180,0.0,0.0,48,0.00,,FEW300,0.00,VWS V14.01,2013-09-20 21:45:00,
2013-09-20 17:47:00,70.5,49.9,30.01,South,180,0.0,0.0,48,0.00,,BKN250,0.00,VWS V14.01,2013-09-20 21:47:00,
2013-09-20 17:50:00,70.2,51.2,30.01,South,180,0.0,0.0,51,0.00,,FEW300,0.00,VWS V14.01,2013-09-20 21:50:00,
2013-09-20 17:52:00,70.2,51.2,30.01,South,180,0.0,0.0,51,0.00,,BKN250,0.00,VWS V14.01,2013-09-20 21:52:00,
2013-09-20 17:55:00,69.8,50.9,30.01,South,180,4.0,7.0,51,0.00,,FEW300,0.00,VWS V14.01,2013-09-20 21:55:00,
2013-09-20 17:57:00,69.8,51.4,30.01,South,180,7.0,7.0,52,0.00,,BKN250,0.00,VWS V14.01,2013-09-20 21:57:00,
2013-09-20 18:00:00,69.7,51.8,30.01,South,180,0.0,0.0,53,0.00,,FEW300,0.00,VWS V14.01,2013-09-20 22:00:00,
2013-09-20 18:02:00,69.7,51.8,30.01,South,180,0.0,0.0,53,0.00,,BKN250,0.00,VWS V14.01,2013-09-20 22:02:00,
2013-09-20 18:05:00,69.3,52.0,30.00,South,180,0.0,0.0,54,0.00,,FEW300,0.00,VWS V14.01,2013-09-20 22:05:00,
2013-09-20 18:07:00,69.3,52.0,30.00,South,180,0.0,0.0,54,0.00,,BKN250,0.00,VWS V14.01,2013-09-20 22:07:00,
2013-09-20 18:10:00,69.0,53.2,30.00,South,180,0.0,0.0,57,0.00,,FEW300,0.00,VWS V14.01,2013-09-20 22:10:00,
2013-09-20 18:12:00,69.0,53.2,30.00,South,180,0.0,0.0,57,0.00,,BKN250,0.00,VWS V14.01,2013-09-20 22:12:00,
2013-09-20 18:15:00,68.5,53.6,30.00,South,180,0.0,0.0,59,0.00,,FEW300,0.00,VWS V14.01,2013-09-20 22:15:00,
2013-09-20 18:17:00,68.5,53.6,30.00,South,180,0.0,0.0,59,0.00,,BKN250,0.00,VWS V14.01,2013-09-20 22:17:00,
2013-09-20 18:20:00,68.2,54.2,30.01,South,180,0.0,0.0,61,0.00,,FEW300,0.00,VWS V14.01,2013-09-20 22:20:00,
2013-09-20 18:22:00,68.2,54.2,30.01,South,180,0.0,0.0,61,0.00,,BKN250,0.00,VWS V14.01,2013-09-20 22:22:00,
2013-09-20 18:25:00,67.7,54.7,30.01,South,180,0.0,0.0,63,0.00,,FEW300,0.00,VWS V14.01,2013-09-20 22:25:00,
2013-09-20 18:27:00,67.7,54.7,30.01,South,180,0.0,0.0,63,0.00,,BKN250,0.00,VWS V14.01,2013-09-20 22:27:00,
2013-09-20 18:30:00,67.3,55.2,30.01,South,180,0.0,0.0,65,0.00,,FEW300,0.00,VWS V14.01,2013-09-20 22:30:00,
2013-09-20 18:32:00,67.3,55.2,30.01,South,180,0.0,0.0,65,0.00,,BKN250,0.00,VWS V14.01,2013-09-20 22:32:00,
2013-09-20 18:35:00,67.0,55.3,30.01,South,180,0.0,0.0,66,0.00,,FEW300,0.00,VWS V14.01,2013-09-20 22:35:00,
2013-09-20 18:37:00,67.0,55.3,30.01,South,180,0.0,0.0,66,0.00,,BKN250,0.00,VWS V14.01,2013-09-20 22:37:00,
2013-09-20 18:40:00,66.7,55.8,30.01,South,180,0.0,0.0,68,0.00,,FEW300,0.00,VWS V14.01,2013-09-20 22:40:00,
2013-09-20 18:42:00,66.7,55.4,30.01,South,180,0.0,0.0,67,0.00,,BKN250,0.00,VWS V14.01,2013-09-20 22:42:00,
2013-09-20 18:45:00,66.2,55.7,30.01,South,180,0.0,3.0,69,0.00,,FEW300,0.00,VWS V14.01,2013-09-20 22:45:00,
2013-09-20 18:47:00,66.2,55.7,30.01,South,180,0.0,3.0,69,0.00,,BKN250,0.00,VWS V14.01,2013-09-20 22:47:00,
2013-09-20 18:50:00,65.7,56.0,30.00,South,180,0.0,0.0,71,0.00,,FEW300,0.00,VWS V14.01,2013-09-20 22:50:00,
2013-09-20 18:52:00,65.7,56.0,30.00,South,180,0.0,0.0,71,0.00,,BKN250,0.00,VWS V14.01,2013-09-20 22:52:00,
2013-09-20 18:55:00,65.2,56.3,30.00,South,180,0.0,0.0,73,0.00,,FEW300,0.00,VWS V14.01,2013-09-20 22:55:00,
2013-09-20 18:57:00,65.4,56.5,30.00,South,180,0.0,0.0,73,0.00,,BKN250,0.00,VWS V14.01,2013-09-20 22:57:00,
2013-09-20 19:00:00,64.9,56.4,30.00,South,180,0.0,0.0,74,0.00,,FEW300,0.00,VWS V14.01,2013-09-20 23:00:00,
2013-09-20 19:02:00,64.9,56.4,30.00,South,180,0.0,0.0,74,0.00,,BKN250,0.00,VWS V14.01,2013-09-20 23:02:00,
2013-09-20 19:05:00,64.4,56.3,30.00,South,180,1.0,5.0,75,0.00,,FEW300,0.00,VWS V14.01,2013-09-20 23:05:00,
2013-09-20 19:07:00,64.4,56.3,30.00,South,180,2.0,5.0,75,0.00,,BKN250,0.00,VWS V14.01,2013-09-20 23:07:00,
2013-09-20 19:10:00,64.1,56.4,30.00,South,180,0.0,0.0,76,0.00,,FEW300,0.00,VWS V14.01,2013-09-20 23:10:00,
2013-09-20 19:12:00,64.1,56.4,30.00,South,180,0.0,0.0,76,0.00,,BKN250,0.00,VWS V14.01,2013-09-20 23:12:00,
2013-09-20 19:15:00,63.7,56.0,30.01,South,180,0.0,0.0,76,0.00,,FEW300,0.00,VWS V14.01,2013-09-20 23:15:00,
2013-09-20 19:17:00,63.7,56.0,30.01,South,180,0.0,0.0,76,0.00,,BKN250,0.00,VWS V14.01,2013-09-20 23:17:00,
2013-09-20 19:20:00,63.4,56.4,30.01,South,180,0.0,0.0,78,0.00,,FEW300,0.00,VWS V14.01,2013-09-20 23:20:00,
2013-09-20 19:22:00,63.4,56.4,30.01,South,180,0.0,0.0,78,0.00,,BKN250,0.00,VWS V14.01,2013-09-20 23:22:00,
2013-09-20 19:25:00,63.3,56.7,30.01,South,180,0.0,0.0,79,0.00,,FEW300,0.00,VWS V14.01,2013-09-20 23:25:00,
2013-09-20 19:27:00,63.3,56.7,30.01,South,180,0.0,0.0,79,0.00,,BKN250,0.00,VWS V14.01,2013-09-20 23:27:00,
2013-09-20 19:30:00,62.9,56.6,30.01,South,180,0.0,0.0,80,0.00,,FEW300,0.00,VWS V14.01,2013-09-20 23:30:00,
2013-09-20 19:32:00,62.9,56.6,30.01,South,180,0.0,0.0,80,0.00,,BKN250,0.00,VWS V14.01,2013-09-20 23:32:00,
2013-09-20 19:35:00,62.6,56.3,30.01,South,180,0.0,0.0,80,0.00,,FEW300,0.00,VWS V14.01,2013-09-20 23:35:00,
2013-09-20 19:37:00,62.6,56.3,30.01,South,180,0.0,0.0,80,0.00,,BKN250,0.00,VWS V14.01,2013-09-20 23:37:00,
2013-09-20 19:40:00,62.1,56.2,30.01,South,180,0.0,0.0,81,0.00,,FEW300,0.00,VWS V14.01,2013-09-20 23:40:00,
2013-09-20 19:42:00,62.1,56.2,30.01,South,180,0.0,0.0,81,0.00,,BKN250,0.00,VWS V14.01,2013-09-20 23:42:00,
2013-09-20 19:45:00,61.7,56.2,30.01,South,180,0.0,0.0,82,0.00,,FEW300,0.00,VWS V14.01,2013-09-20 23:45:00,
2013-09-20 19:47:00,61.7,56.2,30.01,South,180,0.0,0.0,82,0.00,,BKN250,0.00,VWS V14.01,2013-09-20 23:47:00,
2013-09-20 19:50:00,61.4,56.2,30.01,South,180,0.0,0.0,83,0.00,,FEW300,0.00,VWS V14.01,2013-09-20 23:50:00,
2013-09-20 19:52:00,61.4,56.2,30.01,South,180,0.0,0.0,83,0.00,,BKN250,0.00,VWS V14.01,2013-09-20 23:52:00,
2013-09-20 19:55:00,60.9,56.0,30.00,South,180,0.0,0.0,84,0.00,,FEW300,0.00,VWS V14.01,2013-09-20 23:55:00,
2013-09-20 19:57:00,60.9,56.0,30.00,South,180,0.0,0.0,84,0.00,,BKN250,0.00,VWS V14.01,2013-09-20 23:57:00,
2013-09-20 20:00:00,60.6,56.1,30.01,South,180,0.0,0.0,85,0.00,,FEW300,0.00,VWS V14.01,2013-09-21 00:00:00,
2013-09-20 20:02:00,60.6,56.1,30.01,South,180,0.0,0.0,85,0.00,,BKN250,0.00,VWS V14.01,2013-09-21 00:02:00,
2013-09-20 20:05:00,60.3,56.1,30.01,South,180,0.0,0.0,86,0.00,,FEW300,0.00,VWS V14.01,2013-09-21 00:05:00,
2013-09-20 20:07:00,60.3,56.1,30.01,South,180,0.0,0.0,86,0.00,,CLR,0.00,VWS V14.01,2013-09-21 00:07:00,
2013-09-20 20:10:00,59.9,56.3,30.01,South,180,0.0,3.0,88,0.00,,FEW300,0.00,VWS V14.01,2013-09-21 00:10:00,
2013-09-20 20:12:00,59.9,56.3,30.01,South,180,0.0,3.0,88,0.00,,CLR,0.00,VWS V14.01,2013-09-21 00:12:00,
2013-09-20 20:15:00,59.9,56.7,30.01,South,180,2.0,7.0,89,0.00,,FEW300,0.00,VWS V14.01,2013-09-21 00:15:00,
2013-09-20 20:17:00,59.9,56.7,30.01,South,180,1.0,7.0,89,0.00,,CLR,0.00,VWS V14.01,2013-09-21 00:17:00,
2013-09-20 20:20:00,59.9,56.7,30.01,South,180,0.0,0.0,89,0.00,,FEW300,0.00,VWS V14.01,2013-09-21 00:20:00,
2013-09-20 20:22:00,59.9,56.7,30.01,South,180,0.0,0.0,89,0.00,,CLR,0.00,VWS V14.01,2013-09-21 00:22:00,
2013-09-20 20:25:00,59.8,56.2,30.01,South,180,0.0,0.0,88,0.00,,FEW300,0.00,VWS V14.01,2013-09-21 00:25:00,
2013-09-20 20:28:00,59.8,56.2,30.01,South,180,0.0,0.0,88,0.00,,CLR,0.00,VWS V14.01,2013-09-21 00:28:00,
2013-09-20 20:30:00,59.6,56.4,30.01,South,180,0.0,0.0,89,0.00,,FEW300,0.00,VWS V14.01,2013-09-21 00:30:00,
2013-09-20 20:33:00,59.6,56.4,30.01,South,180,0.0,0.0,89,0.00,,CLR,0.00,VWS V14.01,2013-09-21 00:33:00,
2013-09-20 20:35:00,59.5,56.3,30.01,South,180,0.0,0.0,89,0.00,,FEW300,0.00,VWS V14.01,2013-09-21 00:35:00,
2013-09-20 20:38:00,59.5,56.3,30.01,South,180,0.0,0.0,89,0.00,,CLR,0.00,VWS V14.01,2013-09-21 00:38:00,
2013-09-20 20:40:00,59.5,56.3,30.01,South,180,0.0,0.0,89,0.00,,FEW300,0.00,VWS V14.01,2013-09-21 00:40:00,
2013-09-20 20:43:00,59.5,56.3,30.01,South,180,0.0,0.0,89,0.00,,CLR,0.00,VWS V14.01,2013-09-21 00:43:00,
2013-09-20 20:45:00,59.6,56.0,30.01,South,180,0.0,0.0,88,0.00,,FEW300,0.00,VWS V14.01,2013-09-21 00:45:00,
2013-09-20 20:48:00,59.6,56.0,30.01,South,180,0.0,0.0,88,0.00,,CLR,0.00,VWS V14.01,2013-09-21 00:48:00,
2013-09-20 20:50:00,59.5,56.0,30.01,South,180,0.0,0.0,88,0.00,,FEW300,0.00,VWS V14.01,2013-09-21 00:50:00,
2013-09-20 20:53:00,59.5,56.0,30.02,South,180,0.0,0.0,88,0.00,,CLR,0.00,VWS V14.01,2013-09-21 00:53:00,
2013-09-20 20:55:00,59.3,56.1,30.02,South,180,0.0,0.0,89,0.00,,FEW300,0.00,VWS V14.01,2013-09-21 00:55:00,
2013-09-20 20:58:00,59.3,56.1,30.01,South,180,0.0,0.0,89,0.00,,CLR,0.00,VWS V14.01,2013-09-21 00:58:00,
2013-09-20 21:00:00,59.0,55.8,30.01,South,180,0.0,0.0,89,0.00,,FEW300,0.00,VWS V14.01,2013-09-21 01:00:00,
2013-09-20 21:03:00,59.0,55.8,30.01,South,180,0.0,0.0,89,0.00,,CLR,0.00,VWS V14.01,2013-09-21 01:03:00,
2013-09-20 21:05:00,58.9,55.7,30.01,South,180,0.0,0.0,89,0.00,,FEW300,0.00,VWS V14.01,2013-09-21 01:05:00,
2013-09-20 21:08:00,58.9,55.7,30.01,South,180,0.0,0.0,89,0.00,,CLR,0.00,VWS V14.01,2013-09-21 01:08:00,
2013-09-20 21:10:00,58.7,55.8,30.01,South,180,0.0,0.0,90,0.00,,FEW300,0.00,VWS V14.01,2013-09-21 01:10:00,
2013-09-20 21:13:00,58.7,55.5,30.01,South,180,0.0,0.0,89,0.00,,CLR,0.00,VWS V14.01,2013-09-21 01:13:00,
2013-09-20 21:15:00,58.7,55.5,30.01,South,180,0.0,0.0,89,0.00,,FEW300,0.00,VWS V14.01,2013-09-21 01:15:00,
2013-09-20 21:18:00,58.7,55.5,30.01,South,180,0.0,0.0,89,0.00,,CLR,0.00,VWS V14.01,2013-09-21 01:18:00,
2013-09-20 21:20:00,58.6,55.1,30.01,South,180,0.0,0.0,88,0.00,,FEW300,0.00,VWS V14.01,2013-09-21 01:20:00,
2013-09-20 21:23:00,58.6,55.1,30.01,South,180,0.0,0.0,88,0.00,,CLR,0.00,VWS V14.01,2013-09-21 01:23:00,
2013-09-20 21:25:00,58.6,55.1,30.01,South,180,0.0,0.0,88,0.00,,FEW300,0.00,VWS V14.01,2013-09-21 01:25:00,
2013-09-20 21:28:00,58.6,55.1,30.01,South,180,0.0,0.0,88,0.00,,CLR,0.00,VWS V14.01,2013-09-21 01:28:00,
2013-09-20 21:30:00,58.4,54.9,30.01,South,180,0.0,0.0,88,0.00,,FEW300,0.00,VWS V14.01,2013-09-21 01:30:00,
2013-09-20 21:33:00,58.4,54.9,30.01,South,180,9.0,11.0,88,0.00,,CLR,0.00,VWS V14.01,2013-09-21 01:33:00,
2013-09-20 21:35:00,58.4,54.9,30.01,South,180,0.0,0.0,88,0.00,,FEW300,0.00,VWS V14.01,2013-09-21 01:35:00,
2013-09-20 21:38:00,58.4,54.9,30.01,South,180,0.0,0.0,88,0.00,,CLR,0.00,VWS V14.01,2013-09-21 01:38:00,
2013-09-20 21:40:00,58.3,54.8,30.01,South,180,0.0,0.0,88,0.00,,FEW300,0.00,VWS V14.01,2013-09-21 01:40:00,
2013-09-20 21:43:00,58.3,54.8,30.01,South,180,0.0,0.0,88,0.00,,CLR,0.00,VWS V14.01,2013-09-21 01:43:00,
2013-09-20 21:45:00,58.3,54.8,30.01,South,180,0.0,0.0,88,0.00,,FEW300,0.00,VWS V14.01,2013-09-21 01:45:00,
2013-09-20 21:48:00,58.3,54.8,30.01,South,180,0.0,0.0,88,0.00,,CLR,0.00,VWS V14.01,2013-09-21 01:48:00,
2013-09-20 21:50:00,58.1,54.6,30.01,South,180,0.0,9.0,88,0.00,,FEW300,0.00,VWS V14.01,2013-09-21 01:50:00,
2013-09-20 21:53:00,58.1,54.9,30.01,South,180,0.0,2.0,89,0.00,,CLR,0.00,VWS V14.01,2013-09-21 01:53:00,
2013-09-20 21:55:00,57.8,54.3,30.01,South,180,0.0,0.0,88,0.00,,FEW300,0.00,VWS V14.01,2013-09-21 01:55:00,
2013-09-20 21:58:00,57.8,54.3,30.01,South,180,0.0,0.0,88,0.00,,CLR,0.00,VWS V14.01,2013-09-21 01:58:00,
2013-09-20 22:00:00,57.5,54.3,30.01,South,180,0.0,1.0,89,0.00,,FEW300,0.00,VWS V14.01,2013-09-21 02:00:00,
2013-09-20 22:03:00,57.4,54.2,30.01,South,180,0.0,0.0,89,0.00,,CLR,0.00,VWS V14.01,2013-09-21 02:03:00,
2013-09-20 22:05:00,57.0,54.1,30.01,South,180,0.0,0.0,90,0.00,,FEW300,0.00,VWS V14.01,2013-09-21 02:05:00,
2013-09-20 22:08:00,56.9,54.0,30.01,South,180,0.0,0.0,90,0.00,,CLR,0.00,VWS V14.01,2013-09-21 02:08:00,
2013-09-20 22:10:00,56.7,54.1,30.01,South,180,0.0,0.0,91,0.00,,FEW300,0.00,VWS V14.01,2013-09-21 02:10:00,
2013-09-20 22:13:00,56.7,54.1,30.01,South,180,0.0,0.0,91,0.00,,CLR,0.00,VWS V14.01,2013-09-21 02:13:00,
2013-09-20 22:15:00,56.9,54.6,30.01,South,180,0.0,4.0,92,0.00,,FEW300,0.00,VWS V14.01,2013-09-21 02:15:00,
2013-09-20 22:18:00,56.9,54.6,30.01,South,180,0.0,0.0,92,0.00,,CLR,0.00,VWS V14.01,2013-09-21 02:18:00,
2013-09-20 22:20:00,56.9,54.6,30.01,South,180,0.0,0.0,92,0.00,,FEW300,0.00,VWS V14.01,2013-09-21 02:20:00,
2013-09-20 22:23:00,57.0,54.7,30.01,South,180,0.0,7.0,92,0.00,,CLR,0.00,VWS V14.01,2013-09-21 02:23:00,
2013-09-20 22:25:00,56.9,54.9,30.01,South,180,0.0,0.0,93,0.00,,FEW300,0.00,VWS V14.01,2013-09-21 02:25:00,
2013-09-20 22:28:00,56.9,54.9,30.01,South,180,0.0,2.0,93,0.00,,CLR,0.00,VWS V14.01,2013-09-21 02:28:00,
2013-09-20 22:30:00,56.9,54.9,30.01,South,180,0.0,0.0,93,0.00,,FEW300,0.00,VWS V14.01,2013-09-21 02:30:00,
2013-09-20 22:33:00,56.9,54.9,30.01,South,180,0.0,0.0,93,0.00,,CLR,0.00,VWS V14.01,2013-09-21 02:33:00,
2013-09-20 22:35:00,56.9,54.9,30.01,South,180,0.0,0.0,93,0.00,,FEW300,0.00,VWS V14.01,2013-09-21 02:35:00,
2013-09-20 22:38:00,56.9,54.9,30.01,South,180,0.0,0.0,93,0.00,,CLR,0.00,VWS V14.01,2013-09-21 02:38:00,
2013-09-20 22:40:00,56.9,55.2,30.01,South,180,0.0,0.0,94,0.00,,FEW300,0.00,VWS V14.01,2013-09-21 02:40:00,
2013-09-20 22:43:00,56.9,55.2,30.01,South,180,0.0,0.0,94,0.00,,CLR,0.00,VWS V14.01,2013-09-21 02:43:00,
2013-09-20 22:45:00,56.7,55.0,30.00,South,180,0.0,0.0,94,0.00,,FEW300,0.00,VWS V14.01,2013-09-21 02:45:00,
2013-09-20 22:48:00,56.7,55.0,30.00,South,180,0.0,0.0,94,0.00,,CLR,0.00,VWS V14.01,2013-09-21 02:48:00,
2013-09-20 22:50:00,56.6,54.6,30.00,South,180,0.0,0.0,93,0.00,,FEW300,0.00,VWS V14.01,2013-09-21 02:50:00,
2013-09-20 22:53:00,56.6,54.6,30.00,South,180,0.0,3.0,93,0.00,,CLR,0.00,VWS V14.01,2013-09-21 02:53:00,
2013-09-20 22:55:00,56.7,55.0,30.00,South,180,14.0,14.0,94,0.00,,FEW300,0.00,VWS V14.01,2013-09-21 02:55:00,
2013-09-20 22:58:00,56.7,55.3,30.00,South,180,1.0,14.0,95,0.00,,CLR,0.00,VWS V14.01,2013-09-21 02:58:00,
2013-09-20 23:00:00,56.7,55.3,30.00,South,180,0.0,0.0,95,0.00,,FEW300,0.00,VWS V14.01,2013-09-21 03:00:00,
2013-09-20 23:03:00,56.7,55.3,30.00,South,180,0.0,0.0,95,0.00,,FEW300,0.00,VWS V14.01,2013-09-21 03:03:00,
2013-09-20 23:05:00,56.7,55.3,30.01,South,180,0.0,0.0,95,0.00,,FEW300,0.00,VWS V14.01,2013-09-21 03:05:00,
2013-09-20 23:08:00,56.7,55.3,30.00,South,180,4.0,4.0,95,0.00,,FEW300,0.00,VWS V14.01,2013-09-21 03:08:00,
2013-09-20 23:10:00,56.6,55.2,30.01,South,180,0.0,0.0,95,0.00,,FEW300,0.00,VWS V14.01,2013-09-21 03:10:00,
2013-09-20 23:13:00,56.4,55.0,30.01,South,180,5.0,6.0,95,0.00,,FEW300,0.00,VWS V14.01,2013-09-21 03:13:00,
2013-09-20 23:15:00,56.3,54.9,30.01,South,180,0.0,0.0,95,0.00,,FEW300,0.00,VWS V14.01,2013-09-21 03:15:00,
2013-09-20 23:18:00,56.1,54.7,30.01,South,180,0.0,0.0,95,0.00,,FEW300,0.00,VWS V14.01,2013-09-21 03:18:00,
2013-09-20 23:25:00,56.1,54.7,30.00,South,180,0.0,0.0,95,0.00,,FEW300,0.00,VWS V14.01,2013-09-21 03:25:00,
2013-09-20 23:30:00,56.3,55.2,30.00,South,180,0.0,0.0,96,0.00,,FEW300,0.00,VWS V14.01,2013-09-21 03:30:00,
2013-09-20 23:35:00,56.1,55.0,30.00,South,180,0.0,0.0,96,0.00,,FEW300,0.00,VWS V14.01,2013-09-21 03:35:00,
2013-09-20 23:40:00,56.0,54.9,30.00,South,180,0.0,0.0,96,0.00,,FEW300,0.00,VWS V14.01,2013-09-21 03:40:00,
2013-09-20 23:45:00,55.7,54.6,30.00,South,180,0.0,0.0,96,0.00,,FEW300,0.00,VWS V14.01,2013-09-21 03:45:00,
2013-09-20 23:50:00,55.4,54.3,30.01,South,180,0.0,0.0,96,0.00,,FEW300,0.00,VWS V14.01,2013-09-21 03:50:00,
2013-09-20 23:55:00,55.3,54.2,30.01,South,180,0.0,0.0,96,0.00,,FEW300,0.00,VWS V14.01,2013-09-21 03:55:00,